This is the latest recevied weather packets stored in our database for station/object IZ2XCK-13. If no packets are shown the sender has not sent any weather packets the latest 10 day(s).
| Time | Temp. | Humidity | Pressure | Rain* | Wind** | Luminosity | Snow |
|---|---|---|---|---|---|---|---|
| 1778105092 | 10.56° C | 86% | 1013.1 hPa | - | - | - | - |
| 1778103892 | 11.11° C | 80% | 1013 hPa | - | - | - | - |
| 1778102692 | 10.56° C | 81% | 1013.2 hPa | - | - | - | - |
| 1778101491 | 11.11° C | 80% | 1013.2 hPa | - | - | - | - |
| 1778100291 | 10.56° C | 84% | 1013.1 hPa | - | - | - | - |
| 1778099091 | 10.56° C | 83% | 1013.2 hPa | - | - | - | - |
| 1778097890 | 10.56° C | 85% | 1013 hPa | - | - | - | - |
| 1778096690 | 11.67° C | 82% | 1012.8 hPa | - | - | - | - |
| 1778095555 | 10.56° C | 90% | 1013.3 hPa | - | - | - | - |
| 1778093153 | 11.67° C | 94% | 1013 hPa | - | - | - | - |
| 1778091953 | 12.78° C | 88% | 1011.9 hPa | - | - | - | - |
| 1778090752 | 12.22° C | 94% | 1011.2 hPa | - | - | - | - |
| 1778089552 | 12.78° C | 89% | 1010.9 hPa | - | - | - | - |
| 1778088352 | 13.33° C | 85% | 1010.6 hPa | - | - | - | - |
| 1778087151 | 12.78° C | 93% | 1010.2 hPa | - | - | - | - |
| 1778085951 | 13.89° C | 83% | 1009.4 hPa | - | - | - | - |
| 1778084751 | 13.89° C | 82% | 1009.2 hPa | - | - | - | - |
| 1778083550 | 13.89° C | 84% | 1009.1 hPa | - | - | - | - |
| 1778082350 | 14.44° C | 80% | 1009.4 hPa | - | - | - | - |
| 1778081150 | 14.44° C | 77% | 1009.4 hPa | - | - | - | - |
| 1778079949 | 13.89° C | 86% | 1009.9 hPa | - | - | - | - |
| 1778078749 | 16.67° C | 74% | 1010.1 hPa | - | - | - | - |
| 1778077549 | 13.89° C | 90% | 1010.5 hPa | - | - | - | - |
| 1778076348 | 13.89° C | 90% | 1010.6 hPa | - | - | - | - |
| 1778075148 | 14.44° C | 84% | 1010.7 hPa | - | - | - | - |
* Rain since midnight (hover to see other rain measurements)
** Current wind speed in m/s (hover to see current wind gust speed)